Orland, Indiana
Current Conditions -  °F | °C
As of 4:55 PM on Thursday 23 Oct 2014 (Local Time) from KANQ Reporting Station
NA  
Wind Chill: 59°   Ceiling: NA
Heat Index: 59°   Visibility: NA
Dew Point: 48°   Wind: 3mph
Humidity: 67%   Direction: 250°WSW
Pressure: 30.14"   Gusts: NA
Location:  41.73°N, 85.17°W
Report Text: KANQ 232055Z AUTO 25003KT 15/09 A3014 RMK
Loading
Personal Weather Stations






























Interactive Weather Map
Tropical Storm Tracking
New forecast layout! Learn more

10-Day Weather Forecast

Advertisements
Track Severe Weather on mobile